Weather History for KCVX - March, 2013

Change the Weather History Date:

Tuesday, March 19, 2013

  Actual Average Record
Temperature  
Mean Temperature 27 °F -  
Max Temperature 31 °F 40 °F 80 °F (2012)
Min Temperature 23 °F 21 °F 17 °F (2015)
Degree Days  
Heating Degree Days 38    
Moisture  
Dew Point 24 °F    
Average Humidity 90    
Maximum Humidity 100    
Minimum Humidity 68    
Precipitation  
Precipitation 0.00 in - - ()
Sea Level Pressure  
Sea Level Pressure 29.61 in    
Wind  
Wind Speed 13 mph (WSW)    
Max Wind Speed 24 mph    
Max Gust Speed 31 mph    
Visibility 3 miles    
Events Snow    
Averages and records for this station are not official NWS values.
T = Trace of Precipitation, MM = Missing Value Source: NWS Daily Summary

Daily Weather History Graph

Daily Weather History Graph

Search for Another Location

Airport or City:

Trip Planner

Search our weather history database for the weather conditions in past years. The results will help you decide how hot, cold, wet, or windy it might be!

Date:

Astronomy

Mar. 19, 2013 Rise Set
Actual Time 7:45 AM EDT 7:52 PM EDT
Civil Twilight 7:16 AM EDT 8:22 PM EDT
Nautical Twilight 6:41 AM EDT 8:56 PM EDT
Astronomical Twilight 6:06 AM EDT 9:32 PM EDT
Moon 12:19 PM EDT (3/19) 2:54 AM EDT (3/19)
Length of Visible Light 13h 05m
Length of Day
12h 07m
Waxing Crescent, 49% of the Moon is Illuminated
Mar 19
Waxing Crescent
Mar 19
First Quarter
Mar 27
Full
Apr 3
Last Quarter
Apr 10
New

Hourly Weather History & Observations

Time (EDT) Temp. Windchill Dew Point Humidity Pressure Visibility Wind Dir Wind Speed Gust Speed Precip Events Conditions
12:14 AM 30.0 °F 24.1 °F 29.8 °F 99% 29.49 in 5.0 mi SE 5.8 mph - N/A Snow Light Snow
12:34 AM 30.2 °F 25.4 °F 30.0 °F 99% 29.48 in 10.0 mi SSE 4.6 mph - N/A Snow Light Snow
12:54 AM 30.2 °F 25.4 °F 30.0 °F 99% 29.47 in 5.0 mi SSE 4.6 mph - N/A Snow Light Snow
1:15 AM 30.2 °F 25.4 °F 30.2 °F 100% 29.47 in 5.0 mi South 4.6 mph - N/A Snow Light Snow
1:34 AM 30.6 °F 23.8 °F 30.2 °F 99% 29.47 in 3.0 mi South 6.9 mph - N/A Snow Light Snow
1:55 AM 30.7 °F 24.9 °F 30.4 °F 99% 29.46 in 3.0 mi SSW 5.8 mph - N/A Snow Light Snow
2:14 AM 31.1 °F 22.4 °F 30.7 °F 99% 29.46 in 7.0 mi SW 10.4 mph - N/A Snow Light Snow
2:34 AM 30.9 °F 20.7 °F 30.0 °F 96% 29.46 in 10.0 mi WSW 13.8 mph 20.7 mph N/A   Overcast
2:54 AM 30.6 °F 20.2 °F 29.1 °F 94% 29.47 in 7.0 mi West 13.8 mph 20.7 mph N/A Snow Light Snow
3:14 AM 30.2 °F 19.8 °F 28.9 °F 95% 29.47 in 4.0 mi West 13.8 mph 20.7 mph N/A Snow Light Snow
3:35 AM 30.2 °F 19.3 °F 29.3 °F 96% 29.46 in 4.0 mi WSW 15.0 mph 21.9 mph N/A Snow Light Snow
3:54 AM 30.0 °F 19.5 °F 29.1 °F 96% 29.47 in 3.0 mi West 13.8 mph 23.0 mph N/A Snow Light Snow
4:15 AM 28.8 °F 16.6 °F 28.0 °F 97% 29.47 in 2.0 mi SW 17.3 mph 24.2 mph N/A Snow Light Snow
4:34 AM 27.7 °F 14.8 °F 27.0 °F 97% 29.47 in 2.5 mi SW 18.4 mph - N/A Snow Light Snow
4:55 AM 27.1 °F 16.4 °F 25.2 °F 92% 29.47 in 7.0 mi SW 12.7 mph 24.2 mph N/A Snow Light Snow
5:14 AM 26.4 °F 13.2 °F 24.1 °F 91% 29.48 in 4.0 mi SW 18.4 mph 25.3 mph N/A Snow Light Snow
5:35 AM 25.7 °F 14.0 °F 23.7 °F 92% 29.48 in 2.0 mi SW 13.8 mph 25.3 mph N/A Snow Light Snow
5:54 AM 25.5 °F 13.8 °F 23.0 °F 90% 29.48 in 5.0 mi SW 13.8 mph 24.2 mph N/A Snow Light Snow
6:14 AM 25.2 °F 12.4 °F 22.8 °F 91% 29.49 in 3.0 mi SW 16.1 mph 23.0 mph N/A Snow Light Snow
6:34 AM 24.8 °F 12.4 °F 22.5 °F 91% 29.49 in 3.0 mi SW 15.0 mph 24.2 mph N/A Snow Light Snow
6:54 AM 24.4 °F 11.0 °F 22.1 °F 91% 29.49 in 1.2 mi SW 17.3 mph 26.5 mph N/A Snow Light Snow
7:14 AM 23.9 °F 10.8 °F 22.1 °F 93% 29.50 in 1.5 mi SW 16.1 mph 21.9 mph N/A Snow Light Snow
7:34 AM 23.7 °F 10.5 °F 22.1 °F 94% 29.50 in 1.0 mi SW 16.1 mph 24.2 mph N/A Snow Snow
7:55 AM 23.4 °F 10.1 °F 21.9 °F 94% 29.51 in 0.8 mi WSW 16.1 mph 23.0 mph N/A Snow Light Snow
8:14 AM 23.4 °F 10.1 °F 21.7 °F 94% 29.52 in 1.0 mi SW 16.1 mph 21.9 mph N/A Snow Light Snow
8:34 AM 23.0 °F 10.6 °F 21.2 °F 93% 29.52 in 0.8 mi SW 13.8 mph 20.7 mph N/A Snow Light Snow
8:55 AM 23.0 °F 9.6 °F 21.2 °F 93% 29.53 in 1.2 mi SW 16.1 mph 20.7 mph N/A Snow Light Snow
9:14 AM 23.0 °F 10.1 °F 21.2 °F 93% 29.53 in 1.0 mi SW 15.0 mph 24.2 mph N/A Snow Light Snow
9:35 AM 23.0 °F 11.1 °F 21.9 °F 96% 29.54 in 0.5 mi WSW 12.7 mph 20.7 mph N/A Snow Snow
9:54 AM 23.4 °F 10.1 °F 21.7 °F 94% 29.54 in 0.8 mi WSW 16.1 mph 23.0 mph N/A Snow Light Snow
10:14 AM 23.7 °F 9.7 °F 22.3 °F 94% 29.54 in 1.0 mi WSW 18.4 mph 25.3 mph N/A Snow Light Snow
10:35 AM 23.9 °F 11.2 °F 22.1 °F 93% 29.54 in 1.5 mi WSW 15.0 mph 21.9 mph N/A Snow Light Snow
10:54 AM 24.1 °F 11.5 °F 22.3 °F 93% 29.55 in 0.8 mi WSW 15.0 mph 26.5 mph N/A Snow Light Snow
11:15 AM 24.1 °F 10.6 °F 21.9 °F 91% 29.55 in 1.2 mi WSW 17.3 mph 26.5 mph N/A Snow Light Snow
11:35 AM 24.4 °F 10.2 °F 22.1 °F 91% 29.56 in 1.2 mi WSW 19.6 mph 28.8 mph N/A Snow Light Snow
11:54 AM 24.4 °F 11.0 °F 22.1 °F 91% 29.57 in 1.8 mi WSW 17.3 mph - N/A Snow Light Snow
12:15 PM 24.4 °F 12.4 °F 21.7 °F 89% 29.57 in 2.5 mi WSW 13.8 mph 25.3 mph N/A Snow Light Snow
12:35 PM 24.3 °F 11.2 °F 21.9 °F 91% 29.58 in 1.2 mi SW 16.1 mph 26.5 mph N/A Snow Light Snow
12:54 PM 24.4 °F 9.9 °F 22.3 °F 91% 29.59 in 0.8 mi WSW 20.7 mph 25.3 mph N/A Snow Light Snow
1:15 PM 24.6 °F 12.2 °F 22.8 °F 93% 29.60 in 1.0 mi SW 15.0 mph 21.9 mph N/A Snow Light Snow
1:34 PM 25.0 °F 12.2 °F 23.5 °F 94% 29.60 in 0.5 mi WSW 16.1 mph 23.0 mph N/A Snow Light Snow
2:15 PM 25.5 °F 12.4 °F 23.0 °F 90% 29.62 in 1.0 mi WSW 17.3 mph 25.3 mph N/A Snow Light Snow
2:34 PM 25.9 °F 11.4 °F 22.6 °F 88% 29.63 in 1.5 mi West 21.9 mph 28.8 mph N/A Snow Light Snow
2:54 PM 26.6 °F 13.4 °F 22.5 °F 84% 29.63 in 1.0 mi WSW 18.4 mph 26.5 mph N/A Snow Light Snow
3:15 PM 27.0 °F 13.9 °F 23.5 °F 87% 29.64 in 1.2 mi West 18.4 mph 28.8 mph N/A Snow Light Snow
3:34 PM 26.6 °F 13.4 °F 23.9 °F 90% 29.65 in 0.5 mi WSW 18.4 mph 27.6 mph N/A Snow Light Snow
3:55 PM 26.2 °F 12.2 °F 24.1 °F 92% 29.67 in 0.5 mi WSW 20.7 mph 29.9 mph N/A Snow Light Snow
4:15 PM 26.2 °F 12.2 °F 23.5 °F 90% 29.67 in 1.0 mi WSW 20.7 mph 27.6 mph N/A Snow Light Snow
4:34 PM 26.2 °F 12.2 °F 23.4 °F 89% 29.68 in 1.8 mi West 20.7 mph 25.3 mph N/A Snow Light Snow
4:55 PM 26.1 °F 12.7 °F 24.1 °F 92% 29.69 in 0.5 mi WSW 18.4 mph 25.3 mph N/A Snow Snow
5:15 PM 25.9 °F 12.1 °F 24.1 °F 93% 29.70 in 0.5 mi WSW 19.6 mph 26.5 mph N/A Snow Snow
5:34 PM 25.7 °F 12.3 °F 24.3 °F 94% 29.71 in 0.5 mi WSW 18.4 mph 27.6 mph N/A Snow Light Snow
5:55 PM 26.4 °F 13.6 °F 25.0 °F 94% 29.72 in 0.5 mi WSW 17.3 mph 24.2 mph N/A Snow Light Snow
6:15 PM 26.6 °F 13.8 °F 25.3 °F 95% 29.73 in 1.2 mi WSW 17.3 mph 25.3 mph N/A Snow Light Snow
6:34 PM 27.3 °F 15.2 °F 26.4 °F 96% 29.74 in 0.8 mi West 16.1 mph 25.3 mph N/A Snow Light Snow
6:55 PM 27.3 °F 14.8 °F 25.7 °F 94% 29.75 in 2.0 mi West 17.3 mph 25.3 mph N/A Snow Light Snow
7:14 PM 27.5 °F 15.9 °F 25.7 °F 93% 29.76 in 5.0 mi West 15.0 mph - N/A Snow Light Snow
7:34 PM 27.9 °F 16.3 °F 24.8 °F 88% 29.77 in 2.0 mi West 15.0 mph 23.0 mph N/A Snow Light Snow
7:55 PM 27.5 °F 15.9 °F 24.8 °F 90% 29.77 in 4.0 mi West 15.0 mph - N/A Snow Light Snow
8:15 PM 27.5 °F 13.9 °F 24.4 °F 88% 29.78 in 2.0 mi West 20.7 mph 26.5 mph N/A Snow Light Snow
8:34 PM 27.5 °F 14.2 °F 23.0 °F 83% 29.79 in 5.0 mi WNW 19.6 mph 27.6 mph N/A   Overcast
8:54 PM 27.5 °F 14.2 °F 21.2 °F 77% 29.80 in 7.0 mi WNW 19.6 mph 27.6 mph N/A   Overcast
9:14 PM 27.3 °F 12.7 °F 20.7 °F 76% 29.81 in 7.0 mi WNW 24.2 mph 29.9 mph N/A   Overcast
9:34 PM 26.6 °F 13.1 °F 19.9 °F 76% 29.82 in 7.0 mi WNW 19.6 mph 26.5 mph N/A   Overcast
9:55 PM 26.1 °F 11.3 °F 18.9 °F 74% 29.83 in 7.0 mi West 23.0 mph 31.1 mph N/A   Overcast
10:14 PM 25.9 °F 12.5 °F 18.1 °F 73% 29.84 in 7.0 mi WNW 18.4 mph 26.5 mph N/A   Overcast
10:35 PM 26.1 °F 13.1 °F 17.8 °F 71% 29.84 in 7.0 mi WNW 17.3 mph 28.8 mph N/A   Overcast
10:55 PM 26.2 °F 12.2 °F 17.4 °F 69% 29.83 in 10.0 mi West 20.7 mph 26.5 mph N/A   Overcast
11:14 PM 25.9 °F 11.7 °F 17.4 °F 70% 29.84 in 7.0 mi WNW 20.7 mph 29.9 mph N/A   Overcast
11:35 PM 25.7 °F 11.5 °F 16.5 °F 68% 29.83 in 7.0 mi WNW 20.7 mph 31.1 mph N/A   Overcast
11:54 PM 25.9 °F 12.9 °F 17.1 °F 69% 29.83 in 10.0 mi WNW 17.3 mph 25.3 mph N/A   Overcast